Time;durP1;ratioP1;P1;durP2;ratioP2;P2;SDS_P1;SDS_P2;PMS_P1;PMS_P2;Temp;Humidity;BMP_temperature;BMP_pressure;BME280_temperature;BME280_humidity;BME280_pressure;Samples;Min_cycle;Max_cycle;Signal;HPM_P1;HPM_P2
2023/12/04 00:02:19;;;;;;;10.60;6.80;;;;;;;-3.25;78.37;99620.27;106720;1267;72680;-39
2023/12/04 00:04:46;;;;;;;10.90;6.90;;;;;;;-3.32;78.65;99618.35;106747;1264;59508;-39
2023/12/04 00:07:14;;;;;;;12.70;7.10;;;;;;;-3.34;78.82;99621.00;106706;1264;59848;-39
2023/12/04 00:09:41;;;;;;;13.80;7.00;;;;;;;-3.37;78.91;99624.86;106719;1264;71812;-39
2023/12/04 00:12:09;;;;;;;9.90;6.20;;;;;;;-3.35;78.72;99631.44;106699;1264;67574;-39
2023/12/04 00:14:37;;;;;;;10.70;6.30;;;;;;;-3.30;78.36;99635.00;106691;1264;72692;-39
2023/12/04 00:17:04;;;;;;;12.10;7.00;;;;;;;-3.30;78.42;99643.27;106712;1266;59615;-39
2023/12/04 00:19:32;;;;;;;12.90;6.80;;;;;;;-3.35;78.36;99648.24;106712;1269;59541;-40
2023/12/04 00:21:59;;;;;;;13.30;7.50;;;;;;;-3.38;78.36;99648.02;106730;1264;73013;-39
2023/12/04 00:24:27;;;;;;;14.60;7.30;;;;;;;-3.42;78.30;99654.37;106674;1264;67914;-40
2023/12/04 00:26:55;;;;;;;11.30;6.90;;;;;;;-3.40;78.04;99656.29;106701;1267;71820;-39
2023/12/04 00:29:22;;;;;;;14.90;7.40;;;;;;;-3.35;77.84;99663.36;106686;1267;59518;-40
2023/12/04 00:31:49;;;;;;;11.00;6.40;;;;;;;-3.35;77.69;99659.86;106700;1264;60002;-40
2023/12/04 00:34:17;;;;;;;13.20;7.60;;;;;;;-3.45;77.73;99650.66;106644;1264;73065;-39
2023/12/04 00:36:45;;;;;;;11.50;7.30;;;;;;;-3.43;77.80;99666.14;106742;1263;67270;-37
2023/12/04 00:39:12;;;;;;;14.00;7.50;;;;;;;-3.46;77.77;99664.70;106705;1264;72702;-37
2023/12/04 00:41:40;;;;;;;11.50;7.30;;;;;;;-3.50;77.88;99664.90;106703;1264;61834;-38
2023/12/04 00:44:08;;;;;;;13.10;7.80;;;;;;;-3.48;77.86;99666.86;106707;1263;60015;-38
2023/12/04 00:46:35;;;;;;;11.60;6.90;;;;;;;-3.43;77.77;99670.90;106694;1269;71715;-38
2023/12/04 00:49:03;;;;;;;12.10;6.90;;;;;;;-3.45;77.79;99673.83;106688;1264;66946;-38
2023/12/04 00:51:37;;;;;;;12.80;7.50;;;;;;;-3.52;77.99;99676.18;106709;1264;72677;-38
2023/12/04 00:54:05;;;;;;;13.50;7.70;;;;;;;-3.58;78.08;99675.45;106775;1263;59943;-38
2023/12/04 00:56:32;;;;;;;12.90;7.70;;;;;;;-3.63;78.27;99677.04;105990;1264;1003111;-38
2023/12/04 00:59:00;;;;;;;13.10;7.40;;;;;;;-3.61;78.30;99674.30;106707;1263;73038;-38
2023/12/04 01:01:28;;;;;;;11.00;6.80;;;;;;;-3.53;78.10;99672.52;106724;1264;67613;-38
2023/12/04 01:03:55;;;;;;;11.30;6.60;;;;;;;-3.51;78.07;99671.24;106689;1266;71415;-38
2023/12/04 01:06:23;;;;;;;13.40;7.40;;;;;;;-3.53;78.12;99674.73;106642;1266;59538;-38
2023/12/04 01:08:53;;;;;;;11.50;7.30;;;;;;;-3.58;78.09;99680.77;106685;1263;59835;-38
2023/12/04 01:11:21;;;;;;;14.00;7.40;;;;;;;-3.61;78.06;99684.40;106729;1264;73149;-38
2023/12/04 01:13:49;;;;;;;12.90;7.30;;;;;;;-3.65;78.00;99690.80;106675;1266;66426;-38
2023/12/04 01:16:17;;;;;;;13.40;7.00;;;;;;;-3.61;77.90;99693.63;106759;1264;72688;-38
2023/12/04 01:18:44;;;;;;;12.10;7.10;;;;;;;-3.54;77.80;99695.09;106697;1267;59532;-38
2023/12/04 01:21:12;;;;;;;13.10;7.30;;;;;;;-3.54;78.00;99697.21;106700;1264;59170;-38
2023/12/04 01:23:39;;;;;;;12.70;7.60;;;;;;;-3.56;78.18;99694.39;105948;1263;1003017;-38
2023/12/04 01:26:07;;;;;;;12.50;7.40;;;;;;;-3.58;78.23;99694.91;106678;1266;67667;-38
2023/12/04 01:28:34;;;;;;;17.30;8.10;;;;;;;-3.62;78.32;99697.27;106717;1266;73185;-38
2023/12/04 01:31:02;;;;;;;12.40;7.50;;;;;;;-3.62;78.57;99699.98;106738;1266;60497;-38
2023/12/04 01:33:30;;;;;;;12.30;7.50;;;;;;;-3.56;78.39;99707.75;106674;1265;60341;-38
2023/12/04 01:35:58;;;;;;;14.10;7.10;;;;;;;-3.44;78.45;99707.73;106682;1264;73834;-38
2023/12/04 01:38:25;;;;;;;11.20;6.80;;;;;;;-3.40;78.39;99711.52;106702;1264;66763;-38
2023/12/04 01:40:53;;;;;;;12.00;7.40;;;;;;;-3.48;78.57;99696.66;106705;1267;72701;-39
2023/12/04 01:43:20;;;;;;;11.20;6.70;;;;;;;-3.38;78.63;99716.72;106701;1264;60510;-38
2023/12/04 01:45:49;;;;;;;12.70;6.70;;;;;;;-3.39;78.39;99718.02;106682;1264;59298;-38
2023/12/04 01:48:16;;;;;;;10.70;6.50;;;;;;;-3.37;78.39;99713.45;106615;1265;73869;-38
2023/12/04 01:50:44;;;;;;;8.80;5.90;;;;;;;-3.29;78.21;99716.97;106629;1267;67638;-38
2023/12/04 01:53:12;;;;;;;11.50;6.50;;;;;;;-3.26;78.20;99717.89;106667;1267;71454;-38
2023/12/04 01:55:39;;;;;;;12.60;6.80;;;;;;;-3.28;78.32;99716.81;105850;1266;1015713;-38
2023/12/04 01:58:07;;;;;;;11.10;7.10;;;;;;;-3.31;78.28;99716.97;106599;1268;61478;-38
2023/12/04 02:00:34;;;;;;;10.50;6.50;;;;;;;-3.34;78.48;99719.55;106652;1264;73022;-38
2023/12/04 02:03:02;;;;;;;10.70;5.80;;;;;;;-3.30;78.40;99721.00;106700;1266;66277;-38
2023/12/04 02:05:30;;;;;;;12.00;7.20;;;;;;;-3.24;78.18;99721.56;106674;1264;72697;-38
2023/12/04 02:07:57;;;;;;;10.60;6.80;;;;;;;-3.27;78.16;99724.66;106563;1263;61051;-38
2023/12/04 02:10:25;;;;;;;10.90;6.90;;;;;;;-3.32;78.31;99730.75;106662;1264;60302;-38
2023/12/04 02:12:53;;;;;;;11.40;7.00;;;;;;;-3.37;78.43;99735.92;106674;1264;73857;-38
2023/12/04 02:15:20;;;;;;;14.60;7.80;;;;;;;-3.42;78.39;99737.02;106697;1264;66592;-38
2023/12/04 02:17:48;;;;;;;11.10;6.70;;;;;;;-3.40;78.26;99737.19;106641;1265;73222;-38
2023/12/04 02:20:16;;;;;;;10.80;7.20;;;;;;;-3.37;78.08;99737.98;106632;1264;60364;-38
2023/12/04 02:22:44;;;;;;;11.50;6.70;;;;;;;-3.43;78.10;99742.64;106631;1264;59273;-38
2023/12/04 02:25:11;;;;;;;11.60;7.30;;;;;;;-3.49;78.16;99744.23;106637;1264;71977;-38
2023/12/04 02:27:59;;;;;;;11.80;7.10;;;;;;;-3.56;78.26;99747.13;106665;1264;68149;-38
2023/12/04 02:30:28;;;;;;;12.50;7.60;;;;;;;-3.62;78.34;99750.54;106693;1267;72246;-38
2023/12/04 02:32:57;;;;;;;8.40;5.40;;;;;;;-3.62;78.29;99749.48;106725;1264;60926;-38
2023/12/04 02:35:27;;;;;;;11.80;6.50;;;;;;;-3.58;78.06;99749.50;106727;1264;60457;-38
2023/12/04 02:37:54;;;;;;;;;;;;;;;-3.62;78.08;99752.81;106751;1264;73995;-38
2023/12/04 02:40:22;;;;;;;9.40;6.10;;;;;;;-3.69;78.28;99755.41;106657;1264;65835;-38
2023/12/04 02:42:49;;;;;;;13.00;7.10;;;;;;;-3.77;78.43;99757.33;105889;1263;1003784;-38
2023/12/04 02:45:17;;;;;;;12.00;7.20;;;;;;;-3.84;78.43;99760.52;105893;1266;1003082;-38
2023/12/04 02:47:44;;;;;;;11.30;6.30;;;;;;;-3.85;78.40;99761.30;106645;1264;60319;-38
2023/12/04 02:50:12;;;;;;;11.20;6.40;;;;;;;-3.81;78.24;99762.13;106648;1263;73834;-38
2023/12/04 02:52:39;;;;;;;11.90;6.90;;;;;;;-3.84;78.27;99761.36;107060;1257;66755;-37
2023/12/04 02:55:07;;;;;;;9.50;6.20;;;;;;;-3.92;78.30;99763.02;107081;1259;71349;-38
2023/12/04 02:57:35;;;;;;;12.70;6.90;;;;;;;-4.01;78.31;99765.40;107028;1260;60431;-38
2023/12/04 03:00:04;;;;;;;11.90;7.20;;;;;;;-4.07;78.48;99774.14;107101;1257;59789;-38
2023/12/04 03:02:32;;;;;;;11.80;6.70;;;;;;;-4.12;78.73;99775.00;107069;1257;73831;-39
2023/12/04 03:05:00;;;;;;;10.80;7.10;;;;;;;-4.11;78.62;99774.17;107060;1257;67585;-39
2023/12/04 03:07:27;;;;;;;11.40;6.80;;;;;;;-4.05;78.58;99773.04;107070;1257;71446;-39
2023/12/04 03:09:55;;;;;;;10.80;7.00;;;;;;;-4.05;78.69;99774.72;107060;1257;60272;-38
2023/12/04 03:12:22;;;;;;;11.70;7.50;;;;;;;-4.09;78.78;99775.45;106314;1257;1003792;-39
2023/12/04 03:14:50;;;;;;;11.70;7.20;;;;;;;-4.11;79.00;99780.46;107077;1257;73830;-39
2023/12/04 03:17:17;;;;;;;11.00;6.80;;;;;;;-4.21;78.92;99771.48;106361;1257;1003747;-39
2023/12/04 03:19:45;;;;;;;12.00;7.40;;;;;;;-4.16;78.95;99778.87;107042;1260;71449;-39
2023/12/04 03:22:13;;;;;;;11.00;6.90;;;;;;;-4.16;78.76;99784.07;107019;1258;61845;-39
2023/12/04 03:24:40;;;;;;;12.40;7.30;;;;;;;-4.15;78.56;99783.35;107003;1259;60299;-38
2023/12/04 03:27:08;;;;;;;11.00;7.10;;;;;;;-4.16;78.90;99787.30;106996;1263;73858;-39
2023/12/04 03:29:36;;;;;;;13.60;8.00;;;;;;;-4.21;79.16;99783.13;107128;1259;67258;-38
2023/12/04 03:32:04;;;;;;;13.50;7.90;;;;;;;-4.26;79.30;99784.36;106970;1259;72989;-38
2023/12/04 03:34:31;;;;;;;12.90;7.70;;;;;;;-4.30;79.37;99789.45;106994;1259;60520;-38
2023/12/04 03:36:59;;;;;;;12.50;7.80;;;;;;;-4.32;79.50;99786.27;106278;1260;1003105;-38
2023/12/04 03:39:27;;;;;;;10.70;7.10;;;;;;;-4.26;79.42;99787.33;106263;1259;1003161;-39
2023/12/04 03:41:54;;;;;;;12.20;7.10;;;;;;;-4.23;79.39;99793.17;107018;1259;67707;-39
2023/12/04 03:44:22;;;;;;;11.70;7.40;;;;;;;-4.26;79.69;99794.46;106999;1260;72678;-38
2023/12/04 03:46:51;;;;;;;12.60;7.70;;;;;;;-4.29;80.25;99799.27;106967;1260;60608;-39
2023/12/04 03:49:19;;;;;;;14.90;7.80;;;;;;;-4.32;80.34;99803.69;107111;1258;59380;-38
2023/12/04 03:51:46;;;;;;;11.90;7.50;;;;;;;-4.30;80.31;99811.54;107011;1258;73904;-39
2023/12/04 03:54:14;;;;;;;14.00;7.70;;;;;;;-4.21;80.25;99813.41;106982;1261;66620;-39
2023/12/04 03:56:41;;;;;;;12.80;7.80;;;;;;;-4.17;80.17;99810.70;106959;1260;71362;-38
2023/12/04 03:59:10;;;;;;;11.30;7.90;;;;;;;-4.19;80.08;99818.42;107065;1258;60341;-39
2023/12/04 04:01:38;;;;;;;12.10;7.30;;;;;;;-4.22;80.01;99822.35;107080;1260;60534;-38
2023/12/04 04:04:05;;;;;;;11.70;8.40;;;;;;;-4.27;79.93;99821.98;107115;1260;72244;-38
2023/12/04 04:06:33;;;;;;;14.10;8.00;;;;;;;-4.28;80.19;99823.61;107085;1262;66591;-38
2023/12/04 04:09:01;;;;;;;11.90;7.70;;;;;;;-4.21;80.33;99818.70;107064;1257;71745;-38
2023/12/04 04:11:28;;;;;;;11.70;7.80;;;;;;;-4.09;80.37;99815.84;107078;1262;60483;-38
2023/12/04 04:13:56;;;;;;;11.60;8.00;;;;;;;-4.02;80.52;99816.27;107090;1257;60357;-38
2023/12/04 04:16:24;;;;;;;12.00;8.50;;;;;;;-3.97;80.77;99812.14;107107;1257;72739;-39
2023/12/04 04:18:51;;;;;;;14.20;8.60;;;;;;;-3.89;80.80;99815.57;107090;1258;67614;-38
2023/12/04 04:21:19;;;;;;;14.10;9.00;;;;;;;-3.81;80.94;99811.29;107086;1257;72721;-39
2023/12/04 04:23:46;;;;;;;15.40;9.00;;;;;;;-3.74;80.81;99810.07;106415;1258;1003110;-39
2023/12/04 04:26:14;;;;;;;15.90;8.50;;;;;;;-3.63;80.37;99810.30;107183;1257;60431;-39
2023/12/04 04:28:42;;;;;;;13.90;8.40;;;;;;;-3.50;79.93;99810.13;107152;1258;73796;-38
2023/12/04 04:31:09;;;;;;;14.70;8.50;;;;;;;-3.41;80.06;99814.69;107216;1261;67582;-38
2023/12/04 04:33:37;;;;;;;13.40;8.60;;;;;;;-3.35;79.83;99814.02;107163;1257;71454;-38
2023/12/04 04:36:05;;;;;;;13.70;8.70;;;;;;;-3.32;79.65;99817.44;107172;1257;59563;-38
2023/12/04 04:38:32;;;;;;;12.80;8.30;;;;;;;-3.33;79.30;99817.31;107177;1257;60316;-38
2023/12/04 04:41:00;;;;;;;14.10;8.80;;;;;;;-3.33;79.39;99825.01;107151;1257;73847;-38
2023/12/04 04:43:27;;;;;;;13.30;9.20;;;;;;;-3.29;79.06;99827.27;107164;1257;67610;-39
2023/12/04 04:45:55;;;;;;;12.60;8.20;;;;;;;-3.24;78.88;99836.41;107141;1257;72698;-39
2023/12/04 04:48:23;;;;;;;13.20;8.00;;;;;;;-3.20;78.98;99840.77;107125;1257;60468;-38
2023/12/04 04:50:50;;;;;;;13.70;8.40;;;;;;;-3.16;79.09;99851.58;107188;1257;60454;-39
2023/12/04 04:53:18;;;;;;;16.00;9.50;;;;;;;-3.14;78.80;99855.07;107153;1257;72686;-39
2023/12/04 04:55:45;;;;;;;14.90;9.40;;;;;;;-3.14;78.35;99859.67;107183;1257;67645;-39
2023/12/04 04:58:16;;;;;;;16.10;9.60;;;;;;;-3.17;78.02;99862.85;107147;1258;72757;-39
2023/12/04 05:00:45;;;;;;;15.30;9.20;;;;;;;-3.20;77.83;99869.52;107186;1257;60425;-39
2023/12/04 05:03:13;;;;;;;14.70;9.40;;;;;;;-3.16;77.38;99870.55;107235;1261;60081;-39
2023/12/04 05:05:40;;;;;;;11.80;8.40;;;;;;;-3.08;77.11;99872.98;107152;1257;73815;-39
2023/12/04 05:08:08;;;;;;;14.60;9.40;;;;;;;-3.06;76.97;99877.13;107149;1257;68025;-39
2023/12/04 05:10:35;;;;;;;13.20;8.40;;;;;;;-3.04;77.15;99881.64;107166;1257;71391;-39
2023/12/04 05:13:03;;;;;;;12.50;8.70;;;;;;;-3.04;77.08;99884.08;107184;1257;60364;-39
2023/12/04 05:15:30;;;;;;;13.00;9.00;;;;;;;-3.08;76.87;99888.05;107186;1257;60533;-39
2023/12/04 05:17:58;;;;;;;13.20;8.50;;;;;;;-3.16;76.94;99887.89;107174;1257;73841;-39
2023/12/04 05:20:26;;;;;;;15.00;8.40;;;;;;;-3.20;77.08;99891.69;107170;1257;67631;-37
2023/12/04 05:22:53;;;;;;;13.70;8.60;;;;;;;-3.20;76.99;99888.08;107165;1261;72708;-36
2023/12/04 05:25:21;;;;;;;10.70;7.60;;;;;;;-3.16;77.11;99889.44;107136;1257;59735;-39
2023/12/04 05:27:49;;;;;;;13.20;8.00;;;;;;;-3.18;77.54;99883.52;107168;1261;60409;-39
2023/12/04 05:30:17;;;;;;;13.70;8.50;;;;;;;-3.20;78.12;99884.59;107137;1257;73936;-39
2023/12/04 05:32:44;;;;;;;15.30;9.80;;;;;;;-3.24;78.60;99891.08;107164;1257;66281;-39
2023/12/04 05:35:12;;;;;;;15.40;9.60;;;;;;;-3.26;79.13;99901.94;107195;1257;72557;-39
2023/12/04 05:37:39;;;;;;;16.60;10.50;;;;;;;-3.27;79.58;99899.71;107142;1257;60926;-39
2023/12/04 05:40:08;;;;;;;19.00;10.90;;;;;;;-3.16;79.77;99899.94;107161;1257;60479;-39
2023/12/04 05:42:36;;;;;;;17.90;10.50;;;;;;;-3.02;80.24;99901.60;107248;1257;73841;-39
2023/12/04 05:45:04;;;;;;;19.00;10.90;;;;;;;-2.97;80.77;99901.91;107172;1257;67548;-39
2023/12/04 05:47:32;;;;;;;20.00;12.10;;;;;;;-2.95;81.28;99907.16;107189;1257;72629;-39
2023/12/04 05:49:59;;;;;;;18.40;10.90;;;;;;;-2.95;81.29;99909.02;107156;1257;60462;-39
2023/12/04 05:52:27;;;;;;;20.20;11.40;;;;;;;-2.92;81.67;99908.08;107184;1257;60301;-39
2023/12/04 05:54:55;;;;;;;21.00;12.00;;;;;;;-2.82;81.50;99912.31;107256;1257;72650;-39
2023/12/04 05:57:23;;;;;;;20.50;11.70;;;;;;;-2.70;81.41;99913.44;107179;1257;67598;-39
2023/12/04 05:59:50;;;;;;;19.30;11.90;;;;;;;-2.65;81.45;99913.02;107218;1260;73226;-39
2023/12/04 06:02:19;;;;;;;20.90;12.60;;;;;;;-2.64;81.59;99911.88;107206;1257;60380;-39
2023/12/04 06:04:46;;;;;;;22.80;14.20;;;;;;;-2.62;81.80;99912.84;107205;1260;60312;-39
2023/12/04 06:07:15;;;;;;;23.80;13.30;;;;;;;-2.58;81.92;99910.99;107212;1256;72874;-39
2023/12/04 06:09:42;;;;;;;22.80;12.40;;;;;;;-2.47;81.74;99910.67;107136;1257;67566;-39
2023/12/04 06:12:10;;;;;;;21.80;12.40;;;;;;;-2.34;81.58;99910.61;107167;1260;71692;-39
2023/12/04 06:14:37;;;;;;;21.50;12.60;;;;;;;-2.29;81.51;99911.42;107211;1256;60425;-39
2023/12/04 06:17:06;;;;;;;19.80;12.40;;;;;;;-2.31;81.44;99912.52;107157;1263;60332;-39
2023/12/04 06:19:34;;;;;;;23.60;13.20;;;;;;;-2.32;81.57;99909.11;107144;1261;72596;-39
2023/12/04 06:22:01;;;;;;;24.00;12.80;;;;;;;-2.32;81.57;99911.71;107207;1256;67584;-39
2023/12/04 06:24:29;;;;;;;19.10;11.20;;;;;;;-2.32;81.42;99902.97;107181;1257;72662;-39
2023/12/04 06:26:57;;;;;;;24.60;14.10;;;;;;;-2.16;81.35;99915.70;107298;1257;60358;-39
2023/12/04 06:29:25;;;;;;;26.20;12.70;;;;;;;-2.16;81.34;99919.89;107217;1257;60338;-39
2023/12/04 06:31:53;;;;;;;24.20;13.70;;;;;;;-2.18;81.55;99922.23;107200;1257;73941;-39
2023/12/04 06:34:22;;;;;;;21.60;13.60;;;;;;;-2.18;81.82;99925.30;107233;1256;66273;-39
2023/12/04 06:36:50;;;;;;;23.20;13.10;;;;;;;-2.14;81.72;99927.06;107241;1257;70428;-39
2023/12/04 06:39:18;;;;;;;19.80;12.40;;;;;;;-2.05;81.40;99925.23;107192;1257;60414;-39
2023/12/04 06:41:48;;;;;;;22.10;12.30;;;;;;;-1.99;81.28;99930.48;107176;1257;60342;-39
2023/12/04 06:44:16;;;;;;;24.40;13.90;;;;;;;-2.00;81.51;99930.34;107214;1257;74224;-39
2023/12/04 06:46:44;;;;;;;35.20;14.50;;;;;;;-1.98;81.49;99937.34;107165;1262;66468;-39
2023/12/04 06:49:12;;;;;;;25.10;14.10;;;;;;;-1.98;81.39;99938.35;107121;1257;71017;-39
2023/12/04 06:51:40;;;;;;;24.50;14.00;;;;;;;-1.91;81.24;99942.84;107006;1257;61247;-39
2023/12/04 06:54:07;;;;;;;25.00;14.30;;;;;;;-1.81;80.98;99938.02;107218;1257;60384;-39
2023/12/04 06:56:35;;;;;;;22.90;13.50;;;;;;;-1.77;80.91;99942.02;107183;1257;72849;-39
2023/12/04 06:59:03;;;;;;;24.90;14.30;;;;;;;-1.77;80.95;99951.31;107237;1257;67554;-39
2023/12/04 07:01:30;;;;;;;26.40;15.60;;;;;;;-1.77;81.14;99953.83;107189;1257;72692;-39
2023/12/04 07:03:58;;;;;;;29.30;16.70;;;;;;;-1.75;80.75;99952.98;107178;1257;60342;-39
2023/12/04 07:06:25;;;;;;;27.60;18.00;;;;;;;-1.68;80.60;99957.83;107505;1254;60361;-39
2023/12/04 07:08:53;;;;;;;28.50;17.40;;;;;;;-1.60;80.34;99953.94;107461;1254;73807;-39
2023/12/04 07:11:20;;;;;;;26.40;16.70;;;;;;;-1.55;80.46;99960.21;107548;1253;68461;-39
2023/12/04 07:13:48;;;;;;;29.20;17.10;;;;;;;-1.54;80.30;99959.42;107452;1254;72681;-39
2023/12/04 07:16:15;;;;;;;24.40;15.20;;;;;;;-1.54;80.29;99960.27;107511;1254;60444;-39
2023/12/04 07:18:43;;;;;;;26.80;15.00;;;;;;;-1.55;80.13;99959.95;107530;1253;60511;-39
2023/12/04 07:21:11;;;;;;;28.50;16.20;;;;;;;-1.52;79.97;99962.98;107544;1257;73896;-39
2023/12/04 07:23:39;;;;;;;25.40;16.00;;;;;;;-1.46;79.71;99960.48;107426;1254;67571;-37
2023/12/04 07:26:07;;;;;;;27.00;15.60;;;;;;;-1.43;79.77;99962.41;107538;1254;72666;-37
2023/12/04 07:28:34;;;;;;;26.70;16.70;;;;;;;-1.43;79.68;99960.28;107515;1259;60431;-38
2023/12/04 07:31:02;;;;;;;29.50;17.60;;;;;;;-1.45;79.69;99959.11;107527;1254;60316;-38
2023/12/04 07:33:30;;;;;;;28.90;17.10;;;;;;;-1.49;79.72;99958.41;107593;1254;73827;-38
2023/12/04 07:35:58;;;;;;;29.70;18.30;;;;;;;-1.45;79.57;99957.19;107537;1254;67916;-37
2023/12/04 07:38:27;;;;;;;30.00;18.60;;;;;;;-1.40;79.57;99961.35;107530;1257;72686;-38
2023/12/04 07:40:55;;;;;;;27.60;16.70;;;;;;;-1.38;79.62;99960.50;107529;1254;60501;-38
2023/12/04 07:43:23;;;;;;;29.20;16.90;;;;;;;-1.39;79.84;99962.72;107543;1254;59577;-38
2023/12/04 07:45:51;;;;;;;29.70;17.30;;;;;;;-1.40;80.14;99968.63;107533;1253;73881;-38
2023/12/04 07:48:19;;;;;;;30.20;16.20;;;;;;;-1.40;80.06;99972.45;107395;1258;67885;-38
2023/12/04 07:50:46;;;;;;;30.40;18.50;;;;;;;-1.31;79.90;99974.43;107379;1254;72682;-38
2023/12/04 07:53:14;;;;;;;35.10;20.10;;;;;;;-1.19;79.81;99974.42;107416;1258;60562;-39
2023/12/04 07:55:41;;;;;;;38.40;21.70;;;;;;;-1.15;79.64;99976.13;107414;1256;60456;-39
2023/12/04 07:58:09;;;;;;;33.40;20.60;;;;;;;-1.15;79.93;99978.20;107440;1254;72626;-39
2023/12/04 08:00:37;;;;;;;35.50;21.80;;;;;;;-1.14;79.77;99977.88;107453;1254;68382;-39
2023/12/04 08:03:05;;;;;;;36.20;20.10;;;;;;;-1.15;79.75;99981.39;107479;1253;72521;-39
2023/12/04 08:05:33;;;;;;;34.50;19.80;;;;;;;-1.08;79.92;99982.93;107420;1254;61011;-39
2023/12/04 08:08:02;;;;;;;34.50;19.90;;;;;;;-0.95;79.43;99986.08;107488;1254;60136;-39
2023/12/04 08:10:30;;;;;;;40.00;22.90;;;;;;;-0.92;79.16;99987.33;107468;1254;73155;-39
2023/12/04 08:12:58;;;;;;;39.10;22.30;;;;;;;-0.92;79.35;99991.42;107434;1254;67901;-39
2023/12/04 08:15:26;;;;;;;35.80;21.10;;;;;;;-0.91;79.22;99989.41;107487;1254;73109;-39
2023/12/04 08:17:55;;;;;;;36.40;21.40;;;;;;;-0.95;79.07;99989.89;107391;1254;60427;-38
2023/12/04 08:20:23;;;;;;;34.60;19.80;;;;;;;-0.93;78.74;99990.90;107457;1254;60534;-39
2023/12/04 08:23:03;;;;;;;;;;;;;;;-0.87;78.67;99997.98;107461;1259;73833;-39
2023/12/04 08:25:30;;;;;;;36.70;20.70;;;;;;;-0.90;78.82;99998.77;107412;1253;68046;-39
2023/12/04 08:27:59;;;;;;;36.50;21.00;;;;;;;-0.93;78.88;100000.07;107428;1255;71621;-39
2023/12/04 08:30:27;;;;;;;32.40;19.30;;;;;;;-0.95;78.42;99994.73;107427;1254;60354;-39
2023/12/04 08:32:55;;;;;;;29.00;16.30;;;;;;;-1.00;77.09;99996.88;107463;1254;60327;-39
2023/12/04 08:35:22;;;;;;;26.10;15.10;;;;;;;-0.99;76.07;99992.40;107454;1254;73852;-39
2023/12/04 08:37:50;;;;;;;24.70;15.20;;;;;;;-0.99;75.93;99996.13;107473;1254;66298;-39
2023/12/04 08:40:18;;;;;;;23.20;14.50;;;;;;;-1.05;75.89;99991.44;106699;1254;1002841;-39
2023/12/04 08:42:45;;;;;;;21.30;12.90;;;;;;;-1.13;75.36;99993.56;107431;1256;60475;-39
2023/12/04 08:45:13;;;;;;;16.70;11.00;;;;;;;-1.16;75.34;100000.77;107408;1253;59775;-39
2023/12/04 08:47:42;;;;;;;17.30;9.70;;;;;;;-1.11;74.25;99999.21;107407;1254;74432;-39
2023/12/04 08:50:10;;;;;;;14.50;9.70;;;;;;;-1.07;72.89;100000.23;107436;1254;67862;-39
2023/12/04 08:52:37;;;;;;;15.00;9.40;;;;;;;-1.07;73.27;99996.25;107422;1259;71795;-39
2023/12/04 08:55:07;;;;;;;13.40;9.00;;;;;;;-1.08;72.81;99994.11;106713;1254;1003372;-39
2023/12/04 08:57:35;;;;;;;12.20;8.30;;;;;;;-1.09;72.12;99994.58;107383;1253;60395;-39
2023/12/04 09:00:04;;;;;;;9.70;7.00;;;;;;;-1.10;70.68;99991.39;107447;1254;73871;-39
2023/12/04 09:02:31;;;;;;;8.30;6.20;;;;;;;-1.07;68.95;99990.66;107518;1254;68191;-39
2023/12/04 09:04:59;;;;;;;9.50;5.80;;;;;;;-0.99;66.49;99987.25;107426;1254;71346;-39
2023/12/04 09:07:27;;;;;;;7.70;5.20;;;;;;;-0.91;65.72;99986.16;107432;1254;60448;-39
2023/12/04 09:09:59;;;;;;;8.70;5.60;;;;;;;-0.85;64.11;99986.48;107499;1254;60504;-39
2023/12/04 09:12:36;;;;;;;6.90;5.10;;;;;;;-0.73;63.61;99984.64;107451;1259;73834;-39
2023/12/04 09:15:05;;;;;;;7.20;4.90;;;;;;;-0.65;62.47;99983.45;107456;1254;66245;-39
2023/12/04 09:17:34;;;;;;;8.60;4.60;;;;;;;-0.58;62.49;99986.36;107450;1254;72707;-39
2023/12/04 09:20:07;;;;;;;8.30;5.30;;;;;;;-0.55;61.62;99991.05;107494;1254;60312;-39
2023/12/04 09:22:37;;;;;;;7.50;4.80;;;;;;;-0.65;61.28;99980.09;106875;1254;1003353;-39
2023/12/04 09:25:19;;;;;;;8.40;5.20;;;;;;;-0.61;62.02;99997.02;107472;1252;71779;-39
2023/12/04 09:27:47;;;;;;;8.20;5.20;;;;;;;-0.67;61.26;99995.76;107454;1253;66336;-39
2023/12/04 09:30:14;;;;;;;8.10;5.10;;;;;;;-0.77;60.85;99995.77;107443;1257;70734;-39
2023/12/04 09:32:42;;;;;;;7.50;5.20;;;;;;;-0.92;61.02;100002.30;106673;1259;1003786;-39
2023/12/04 09:35:10;;;;;;;9.80;5.10;;;;;;;-1.14;61.42;99991.23;107309;1254;182564;-39
2023/12/04 09:39:57;;;;;;;8.00;5.10;;;;;;;-1.33;62.58;100001.72;104039;1292;600647;-38
2023/12/04 09:42:24;;;;;;;8.40;5.40;;;;;;;-1.39;63.18;99997.67;106553;1267;59365;-38
2023/12/04 09:44:52;;;;;;;7.50;5.50;;;;;;;-1.38;63.22;99993.26;106539;1266;60169;-38
2023/12/04 09:47:20;;;;;;;8.20;5.00;;;;;;;-1.30;62.76;99996.45;106625;1266;72228;-38
2023/12/04 09:49:48;;;;;;;7.50;5.00;;;;;;;-1.28;62.65;99999.11;106423;1267;68072;-38
2023/12/04 09:52:16;;;;;;;9.90;5.70;;;;;;;-1.29;62.66;99998.31;105824;1270;1003319;-38
2023/12/04 09:54:44;;;;;;;7.50;5.40;;;;;;;-1.32;62.42;99998.20;106665;1264;145319;-38
2023/12/04 09:57:12;;;;;;;8.80;5.70;;;;;;;-1.34;62.61;100002.99;106736;1264;60250;-38
2023/12/04 09:59:40;;;;;;;9.60;5.60;;;;;;;-1.34;62.91;99999.96;106778;1263;72257;-38
2023/12/04 10:02:07;;;;;;;9.40;5.90;;;;;;;-1.41;62.96;99985.02;106756;1263;68085;-38
2023/12/04 10:04:36;;;;;;;9.20;6.10;;;;;;;-1.32;62.49;99999.60;106714;1269;71533;-38
2023/12/04 10:07:04;;;;;;;8.00;5.60;;;;;;;-1.35;61.97;100001.14;106712;1264;61727;-38
2023/12/04 10:09:31;;;;;;;7.90;5.70;;;;;;;-1.36;62.05;99996.61;106847;1263;59625;-38
2023/12/04 10:11:59;;;;;;;9.00;6.20;;;;;;;-1.32;62.25;100005.29;106701;1264;73214;-38
2023/12/04 10:14:27;;;;;;;8.40;5.70;;;;;;;-1.29;62.10;100000.13;106723;1263;68096;-38
2023/12/04 10:16:55;;;;;;;12.00;6.40;;;;;;;-1.27;61.88;99996.98;106750;1263;72672;-38
2023/12/04 10:19:27;;;;;;;9.20;6.10;;;;;;;-1.23;61.96;99992.19;106770;1264;60543;-38
2023/12/04 10:21:56;;;;;;;8.30;6.10;;;;;;;-1.17;61.86;99989.33;106738;1263;62318;-38
2023/12/04 10:24:32;;;;;;;7.50;5.10;;;;;;;-1.04;61.83;99987.67;106887;1263;73085;-38
2023/12/04 10:27:00;;;;;;;8.80;6.00;;;;;;;-0.86;61.13;99983.50;106837;1269;68979;-38
2023/12/04 10:29:30;;;;;;;8.50;5.80;;;;;;;-0.61;60.93;99984.02;106760;1264;72649;-38
2023/12/04 10:32:00;;;;;;;9.30;5.90;;;;;;;-0.36;60.50;99982.25;106764;1264;59418;-41
2023/12/04 10:34:33;;;;;;;9.80;5.70;;;;;;;-0.15;59.71;99975.87;106706;1269;59525;-38
2023/12/04 10:37:03;;;;;;;8.50;5.60;;;;;;;0.09;58.36;99983.69;106685;1264;73192;-38
2023/12/04 10:39:32;;;;;;;8.10;5.60;;;;;;;0.22;57.66;99983.09;106762;1263;67582;-39
2023/12/04 10:42:02;;;;;;;8.20;5.20;;;;;;;0.23;56.68;99973.00;106909;1263;72786;-40
2023/12/04 10:44:31;;;;;;;7.20;4.90;;;;;;;0.33;56.59;99984.73;106746;1260;59481;-39
2023/12/04 10:47:00;;;;;;;7.60;5.00;;;;;;;0.33;56.08;99982.63;106914;1261;62141;-40
2023/12/04 10:49:28;;;;;;;6.40;4.70;;;;;;;0.35;56.06;99981.88;106984;1261;72993;-40
2023/12/04 10:51:59;;;;;;;8.80;4.60;;;;;;;0.36;54.85;99981.50;106161;1266;1003444;-39
2023/12/04 10:54:27;;;;;;;5.50;4.10;;;;;;;0.40;55.06;99985.05;106775;1266;72485;-39
2023/12/04 10:56:59;;;;;;;5.80;4.40;;;;;;;0.51;54.88;99986.26;106815;1260;59596;-39
2023/12/04 10:59:27;;;;;;;6.80;4.90;;;;;;;0.67;54.21;99990.56;106972;1260;60022;-39
2023/12/04 11:01:55;;;;;;;7.60;5.60;;;;;;;0.79;55.26;99993.41;106485;1257;1003541;-39
2023/12/04 11:04:24;;;;;;;10.20;5.70;;;;;;;0.88;55.46;99994.61;106255;1265;1003439;-39
2023/12/04 11:06:52;;;;;;;8.40;5.10;;;;;;;0.99;54.89;99988.33;107136;1257;72785;-39
2023/12/04 11:09:26;;;;;;;6.40;4.40;;;;;;;1.08;54.77;99986.69;107158;1257;59436;-39
2023/12/04 11:11:57;;;;;;;5.70;4.10;;;;;;;1.13;53.43;99985.37;107115;1262;61537;-39
2023/12/04 11:14:27;;;;;;;6.20;4.20;;;;;;;1.09;52.81;99986.15;107216;1256;73406;-38
2023/12/04 11:16:57;;;;;;;6.90;4.70;;;;;;;1.09;53.36;99987.97;107156;1261;67582;-38
2023/12/04 11:19:50;;;;;;;6.70;4.90;;;;;;;1.11;53.36;99988.75;107207;1257;71846;-37
2023/12/04 11:22:20;;;;;;;6.40;4.60;;;;;;;1.09;52.91;99989.19;107181;1256;59433;-38
2023/12/04 11:24:50;;;;;;;6.20;4.70;;;;;;;1.02;52.96;99990.81;107013;1257;59508;-38